Time;durP1;ratioP1;P1;durP2;ratioP2;P2;SDS_P1;SDS_P2;PMS_P1;PMS_P2;Temp;Humidity;BMP_temperature;BMP_pressure;BME280_temperature;BME280_humidity;BME280_pressure;Samples;Min_cycle;Max_cycle;Signal;HPM_P1;HPM_P2
2023/11/04 00:00:22;;;;;;;5.40;2.03;;;;;;;6.94;100.00;99089.56;4999023;28;20224;-74
2023/11/04 00:02:48;;;;;;;4.33;1.80;;;;;;;6.09;100.00;98927.50;5002030;28;20818;-74
2023/11/04 00:05:13;;;;;;;5.00;1.80;;;;;;;6.01;100.00;98930.44;5002920;28;20196;-74
2023/11/04 00:07:39;;;;;;;5.10;1.80;;;;;;;6.38;100.00;98996.31;5000779;28;20526;-73
2023/11/04 00:10:05;;;;;;;7.13;1.97;;;;;;;5.41;100.00;98843.03;4997809;28;20186;-74
2023/11/04 00:12:32;;;;;;;4.20;1.90;;;;;;;5.80;100.00;98920.94;5000947;28;20683;-73
2023/11/04 00:14:58;;;;;;;5.10;2.00;;;;;;;5.64;100.00;98884.19;4998694;28;20462;-74
2023/11/04 00:17:23;;;;;;;6.27;1.60;;;;;;;5.91;100.00;98923.94;5002774;28;20436;-73
2023/11/04 00:19:49;;;;;;;6.33;2.10;;;;;;;5.82;100.00;98915.41;4999198;28;20213;-74
2023/11/04 00:22:14;;;;;;;6.37;2.23;;;;;;;5.69;100.00;98918.13;5001851;28;20650;-74
2023/11/04 00:24:39;;;;;;;11.40;1.60;;;;;;;6.07;100.00;98969.50;5001998;28;20223;-74
2023/11/04 00:27:05;;;;;;;7.40;1.90;;;;;;;5.76;100.00;98913.59;4999273;28;20200;-73
2023/11/04 00:29:31;;;;;;;4.23;1.40;;;;;;;6.27;100.00;98990.66;5014440;28;20188;-73
2023/11/04 00:31:57;;;;;;;6.53;1.80;;;;;;;6.12;100.00;98979.50;5000455;28;20193;-74
2023/11/04 00:34:23;;;;;;;5.83;1.53;;;;;;;5.70;100.00;98957.00;4999553;28;20673;-73
2023/11/04 00:36:49;;;;;;;3.70;1.70;;;;;;;6.38;100.00;99074.38;5001567;28;20714;-74
2023/11/04 00:39:14;;;;;;;6.30;2.00;;;;;;;5.53;100.00;98888.38;5004044;28;20200;-74
2023/11/04 00:41:40;;;;;;;6.00;1.50;;;;;;;6.03;100.00;98999.44;4998893;28;20201;-73
2023/11/04 00:44:05;;;;;;;5.47;1.73;;;;;;;5.51;100.00;98908.22;4999657;28;20690;-74
2023/11/04 00:46:31;;;;;;;3.30;1.30;;;;;;;6.01;100.00;99012.94;4998483;28;20189;-74
2023/11/04 00:48:59;;;;;;;3.87;1.40;;;;;;;6.70;100.00;99101.00;5010440;28;20182;-73
2023/11/04 00:51:24;;;;;;;7.23;1.90;;;;;;;6.22;100.00;99005.63;4997015;28;20181;-73
2023/11/04 00:53:50;;;;;;;4.77;1.60;;;;;;;6.00;100.00;98995.34;4997071;28;20852;-73
2023/11/04 00:56:15;;;;;;;6.33;1.70;;;;;;;5.60;100.00;98950.31;5003192;28;20201;-73
2023/11/04 00:58:41;;;;;;;4.03;1.50;;;;;;;6.52;100.00;99121.19;5005403;28;20197;-73
2023/11/04 01:01:07;;;;;;;8.53;1.77;;;;;;;5.89;100.00;98994.13;5004055;28;20212;-74
2023/11/04 01:03:33;;;;;;;4.63;1.20;;;;;;;6.32;100.00;99064.56;5006250;28;20245;-73
2023/11/04 01:05:58;;;;;;;3.63;1.27;;;;;;;7.12;100.00;99194.63;5019344;28;20475;-73
2023/11/04 01:08:24;;;;;;;4.17;1.30;;;;;;;6.86;100.00;99144.97;5002712;28;20823;-74
2023/11/04 01:10:49;;;;;;;3.20;1.40;;;;;;;7.18;100.00;99183.06;5003785;28;20263;-73
2023/11/04 01:13:15;;;;;;;10.93;1.83;;;;;;;7.28;100.00;99186.06;5005233;28;20221;-73
2023/11/04 01:15:40;;;;;;;3.63;1.20;;;;;;;7.10;100.00;99176.16;5005051;28;20208;-73
2023/11/04 01:18:06;;;;;;;4.30;1.60;;;;;;;7.10;100.00;99165.50;5001561;28;20805;-74
2023/11/04 01:20:31;;;;;;;4.13;1.60;;;;;;;7.17;100.00;99154.75;5004765;28;20239;-74
2023/11/04 01:22:57;;;;;;;4.90;1.40;;;;;;;7.38;100.00;99188.25;4997814;28;20206;-74
2023/11/04 01:25:22;;;;;;;6.30;1.50;;;;;;;7.32;100.00;99155.28;5001537;28;20182;-73
2023/11/04 01:27:48;;;;;;;4.63;1.60;;;;;;;7.16;100.00;99161.94;5008623;28;20196;-73
2023/11/04 01:30:13;;;;;;;3.80;1.43;;;;;;;6.92;100.00;99094.28;5002619;28;20174;-73
2023/11/04 01:32:39;;;;;;;6.67;1.57;;;;;;;7.17;100.00;99134.25;4995733;28;20659;-74
2023/11/04 01:35:05;;;;;;;5.50;1.80;;;;;;;6.99;100.00;99103.03;5001881;28;20621;-74
2023/11/04 01:37:31;;;;;;;4.00;1.30;;;;;;;7.64;100.00;99152.50;5005171;28;20445;-73
2023/11/04 01:39:56;;;;;;;6.23;1.53;;;;;;;7.24;100.00;99086.19;5006271;28;20460;-73
2023/11/04 01:42:21;;;;;;;7.30;1.50;;;;;;;7.15;100.00;99108.84;5004087;28;20280;-74
2023/11/04 01:44:47;;;;;;;3.40;1.20;;;;;;;7.14;100.00;99077.88;5005528;28;20579;-74
2023/11/04 01:47:13;;;;;;;5.23;1.47;;;;;;;7.10;100.00;99064.19;5001655;28;20196;-74
2023/11/04 01:49:38;;;;;;;5.43;1.63;;;;;;;7.46;100.00;99126.59;4999785;28;20185;-74
2023/11/04 01:52:05;;;;;;;3.63;1.33;;;;;;;6.68;100.00;99020.47;5002862;28;20451;-73
2023/11/04 01:54:33;;;;;;;3.60;1.20;;;;;;;6.86;100.00;99028.53;5002348;28;20681;-73
2023/11/04 01:57:00;;;;;;;5.50;1.10;;;;;;;6.94;100.00;99033.56;5001785;28;20540;-73
2023/11/04 01:59:27;;;;;;;4.60;1.57;;;;;;;7.10;100.00;99037.50;4993707;28;20503;-73
2023/11/04 02:01:53;;;;;;;9.80;1.57;;;;;;;7.41;100.00;99113.94;4998104;28;20816;-73
2023/11/04 02:04:18;;;;;;;6.97;1.43;;;;;;;6.85;100.00;99036.72;5003523;28;20463;-74
2023/11/04 02:06:44;;;;;;;4.47;1.40;;;;;;;6.75;100.00;99003.38;5001355;28;20446;-74
2023/11/04 02:09:11;;;;;;;3.23;1.40;;;;;;;6.94;100.00;99009.59;5004455;28;20197;-74
2023/11/04 02:11:36;;;;;;;4.17;1.20;;;;;;;6.94;100.00;99008.75;5003447;28;20444;-73
2023/11/04 02:14:03;;;;;;;5.43;1.20;;;;;;;7.54;100.00;99101.50;5002852;28;20466;-73
2023/11/04 02:16:29;;;;;;;5.40;1.20;;;;;;;7.53;100.00;99095.34;4997282;28;20528;-74
2023/11/04 02:18:55;;;;;;;4.07;1.30;;;;;;;7.62;100.00;99098.53;5001130;28;20494;-76
2023/11/04 02:21:21;;;;;;;4.50;1.47;;;;;;;7.07;100.00;99016.63;5002275;28;20225;-76
2023/11/04 02:23:46;;;;;;;3.60;1.50;;;;;;;7.24;100.00;99027.53;5003066;28;20217;-76
2023/11/04 02:26:12;;;;;;;3.93;1.10;;;;;;;7.22;100.00;99043.75;5004767;28;20444;-76
2023/11/04 02:28:38;;;;;;;3.97;1.40;;;;;;;7.75;100.00;99100.22;4999482;28;20181;-76
2023/11/04 02:31:03;;;;;;;3.23;0.90;;;;;;;7.16;100.00;99017.16;4999746;28;20447;-76
2023/11/04 02:33:29;;;;;;;5.33;1.40;;;;;;;7.53;100.00;99060.66;5001536;28;20270;-76
2023/11/04 02:35:54;;;;;;;5.10;1.70;;;;;;;7.41;100.00;99028.59;5003962;28;20185;-76
2023/11/04 02:38:20;;;;;;;5.10;1.00;;;;;;;7.45;100.00;99012.94;5002435;28;20193;-76
2023/11/04 02:40:46;;;;;;;3.83;1.40;;;;;;;7.64;100.00;99048.44;5002330;28;20217;-76
2023/11/04 02:43:11;;;;;;;3.77;1.20;;;;;;;7.68;100.00;99058.44;5003042;28;20267;-76
2023/11/04 02:45:37;;;;;;;5.60;1.13;;;;;;;7.22;100.00;98985.06;5007051;28;20444;-76
2023/11/04 02:48:02;;;;;;;5.67;1.33;;;;;;;7.25;100.00;98973.97;5001601;28;20239;-76
2023/11/04 02:50:28;;;;;;;4.50;1.20;;;;;;;7.29;100.00;98979.69;5002787;28;20732;-76
2023/11/04 02:52:54;;;;;;;4.80;1.40;;;;;;;7.35;100.00;98944.13;5000003;28;20189;-75
2023/11/04 02:55:20;;;;;;;6.63;1.80;;;;;;;7.80;100.00;99028.31;5002910;28;20448;-76
2023/11/04 02:57:47;;;;;;;3.97;1.40;;;;;;;7.20;100.00;98928.50;5013233;28;20248;-76
2023/11/04 03:00:14;;;;;;;4.70;1.23;;;;;;;7.80;100.00;99004.31;5003525;28;21158;-76
2023/11/04 03:02:40;;;;;;;4.77;0.90;;;;;;;7.76;100.00;99003.94;5001877;28;20499;-76
2023/11/04 03:05:07;;;;;;;4.80;1.13;;;;;;;7.44;100.00;98936.63;5001622;28;20455;-76
2023/11/04 03:07:32;;;;;;;4.57;1.57;;;;;;;7.38;100.00;98959.69;5000230;28;20523;-76
2023/11/04 03:09:58;;;;;;;4.10;1.20;;;;;;;7.28;100.00;98915.91;5002288;28;20433;-76
2023/11/04 03:12:23;;;;;;;5.67;1.20;;;;;;;7.67;100.00;98957.25;5000550;28;20186;-76
2023/11/04 03:14:48;;;;;;;5.60;1.27;;;;;;;7.69;100.00;98976.50;4998182;28;20300;-76
2023/11/04 03:17:14;;;;;;;4.90;1.60;;;;;;;8.03;100.00;99009.72;4997974;28;20189;-76
2023/11/04 03:19:42;;;;;;;4.73;1.33;;;;;;;7.47;100.00;98936.19;5004426;28;20212;-76
2023/11/04 03:22:08;;;;;;;4.20;1.20;;;;;;;8.05;100.00;99005.00;4999993;28;20272;-74
2023/11/04 03:24:33;;;;;;;5.57;1.97;;;;;;;7.39;100.00;98918.63;5002010;28;20896;-74
2023/11/04 03:26:59;;;;;;;4.70;1.73;;;;;;;7.95;100.00;99009.22;4996284;28;20269;-73
2023/11/04 03:29:24;;;;;;;3.03;1.23;;;;;;;7.78;100.00;98953.00;5004371;28;20530;-73
2023/11/04 03:31:50;;;;;;;6.27;1.87;;;;;;;7.88;100.00;98996.78;5001167;28;20208;-73
2023/11/04 03:34:15;;;;;;;4.73;1.60;;;;;;;7.54;100.00;98933.41;4997488;28;20750;-74
2023/11/04 03:36:40;;;;;;;5.00;1.93;;;;;;;7.58;100.00;98926.56;5003877;28;20193;-74
2023/11/04 03:39:06;;;;;;;5.60;1.50;;;;;;;7.27;100.00;98869.75;5000051;28;20193;-73
2023/11/04 03:41:31;;;;;;;5.87;2.33;;;;;;;7.93;100.00;98996.94;5003520;28;20232;-74
2023/11/04 03:43:56;;;;;;;6.27;1.73;;;;;;;8.03;100.00;98992.91;4999405;28;20213;-73
2023/11/04 03:46:22;;;;;;;5.00;1.90;;;;;;;7.83;100.00;98947.78;5003251;28;20189;-73
2023/11/04 03:48:48;;;;;;;7.13;2.17;;;;;;;7.88;100.00;98959.41;5000894;28;20551;-74
2023/11/04 03:51:13;;;;;;;6.40;1.70;;;;;;;8.13;100.00;98994.00;5003484;28;20694;-74
2023/11/04 03:53:39;;;;;;;5.73;2.00;;;;;;;7.84;100.00;98968.09;5001779;28;20205;-74
2023/11/04 03:56:05;;;;;;;3.47;1.60;;;;;;;7.66;100.00;98916.41;5004234;28;20196;-73
2023/11/04 03:58:30;;;;;;;4.87;1.67;;;;;;;8.04;100.00;98970.50;5001411;28;20451;-73
2023/11/04 04:00:56;;;;;;;4.53;2.10;;;;;;;8.15;100.00;98996.41;4997993;28;20471;-73
2023/11/04 04:03:22;;;;;;;5.37;1.67;;;;;;;7.50;100.00;98913.56;5004044;28;20216;-73
2023/11/04 04:05:48;;;;;;;4.63;2.00;;;;;;;7.62;100.00;98909.91;5004814;28;20185;-73
2023/11/04 04:08:17;;;;;;;5.47;1.73;;;;;;;8.05;100.00;98985.50;5002441;28;20448;-74
2023/11/04 04:10:42;;;;;;;4.90;1.43;;;;;;;8.15;100.00;98991.88;5005157;28;20188;-73
2023/11/04 04:13:08;;;;;;;5.50;1.50;;;;;;;8.00;100.00;98953.31;4999444;28;20501;-73
2023/11/04 04:15:33;;;;;;;7.20;2.10;;;;;;;8.14;100.00;98992.13;5002920;28;20655;-74
2023/11/04 04:17:59;;;;;;;5.43;1.60;;;;;;;7.58;100.00;98892.72;4999751;28;20704;-73
2023/11/04 04:20:24;;;;;;;6.23;2.80;;;;;;;8.26;100.00;98998.31;5003166;28;20212;-73
2023/11/04 04:22:50;;;;;;;4.13;1.83;;;;;;;7.40;100.00;98884.75;5005663;28;20192;-73
2023/11/04 04:25:15;;;;;;;5.60;2.20;;;;;;;7.47;100.00;98888.16;5001313;28;20411;-73
2023/11/04 04:27:41;;;;;;;6.87;1.67;;;;;;;7.63;100.00;98918.72;5005998;28;20185;-73
2023/11/04 04:30:07;;;;;;;5.60;1.67;;;;;;;8.06;100.00;98977.22;5000947;28;20221;-74
2023/11/04 04:32:33;;;;;;;8.77;1.80;;;;;;;8.15;100.00;98994.56;5012704;28;20185;-73
2023/11/04 04:34:59;;;;;;;4.97;2.00;;;;;;;7.65;100.00;98906.78;4999797;28;20474;-73
2023/11/04 04:37:24;;;;;;;6.03;2.40;;;;;;;7.53;100.00;98908.59;5000750;28;22040;-73
2023/11/04 04:39:50;;;;;;;5.30;2.10;;;;;;;7.46;100.00;98908.69;5003990;28;20287;-74
2023/11/04 04:42:16;;;;;;;5.00;2.40;;;;;;;7.41;100.00;98897.88;5002261;28;20193;-73
2023/11/04 04:44:42;;;;;;;8.00;2.17;;;;;;;7.58;100.00;98956.75;5003135;28;20470;-74
2023/11/04 04:47:07;;;;;;;6.13;2.40;;;;;;;7.16;100.00;98892.66;5001699;28;21020;-74
2023/11/04 04:49:33;;;;;;;15.63;2.13;;;;;;;7.65;100.00;98933.47;5004043;28;20186;-73
2023/11/04 04:51:58;;;;;;;4.13;1.80;;;;;;;8.06;100.00;98995.94;5004175;28;20196;-73
2023/11/04 04:54:23;;;;;;;5.43;2.10;;;;;;;7.74;100.00;98974.00;5000746;28;20234;-74
2023/11/04 04:56:49;;;;;;;6.23;2.40;;;;;;;7.37;100.00;98904.69;5001614;28;20199;-73
2023/11/04 04:59:15;;;;;;;6.70;2.10;;;;;;;7.48;100.00;98937.78;4993432;28;20630;-74
2023/11/04 05:01:41;;;;;;;4.20;2.00;;;;;;;8.01;100.00;98990.44;5006204;28;20443;-74
2023/11/04 05:04:07;;;;;;;4.37;1.97;;;;;;;7.83;100.00;98980.63;5001470;28;20215;-73
2023/11/04 05:06:33;;;;;;;8.10;2.27;;;;;;;8.05;100.00;98996.16;5000540;28;20917;-73
2023/11/04 05:08:58;;;;;;;4.90;1.90;;;;;;;8.24;100.00;99015.59;5002153;28;21091;-73
2023/11/04 05:11:24;;;;;;;4.50;1.60;;;;;;;8.23;100.00;99013.97;4999326;28;20555;-73
2023/11/04 05:13:49;;;;;;;10.13;2.60;;;;;;;7.95;100.00;98995.88;5001860;28;20220;-74
2023/11/04 05:16:15;;;;;;;6.40;1.83;;;;;;;8.18;100.00;99014.66;4997299;28;20177;-74
2023/11/04 05:18:40;;;;;;;5.57;2.50;;;;;;;7.87;100.00;98976.50;4999591;28;20189;-73
2023/11/04 05:21:06;;;;;;;11.07;2.70;;;;;;;8.02;100.00;99007.31;5000960;28;20301;-74
2023/11/04 05:23:31;;;;;;;5.77;1.97;;;;;;;7.83;100.00;98982.50;4999874;28;20224;-74
2023/11/04 05:26:00;;;;;;;5.63;2.10;;;;;;;8.13;100.00;99025.22;4997317;28;20193;-73
2023/11/04 05:28:26;;;;;;;5.30;2.57;;;;;;;7.97;100.00;99013.31;5002216;28;20185;-74
2023/11/04 05:30:52;;;;;;;5.27;1.90;;;;;;;8.17;100.00;99039.75;5001846;28;20447;-74
2023/11/04 05:33:19;;;;;;;4.27;2.23;;;;;;;7.64;100.00;98942.53;5000238;28;20456;-73
2023/11/04 05:35:45;;;;;;;7.07;2.40;;;;;;;7.58;100.00;98929.25;4999799;28;20459;-73
2023/11/04 05:38:10;;;;;;;6.17;2.67;;;;;;;8.08;100.00;99025.09;4999287;28;20732;-74
2023/11/04 05:40:36;;;;;;;8.90;2.73;;;;;;;8.18;100.00;99030.69;5000471;28;20217;-76
2023/11/04 05:43:02;;;;;;;5.67;2.10;;;;;;;8.23;100.00;99027.34;5002056;28;20619;-76
2023/11/04 05:45:28;;;;;;;5.50;2.50;;;;;;;8.31;100.00;99025.16;5005545;28;20440;-76
2023/11/04 05:47:54;;;;;;;5.50;2.37;;;;;;;8.23;100.00;99020.13;5004105;28;20185;-76
2023/11/04 05:50:19;;;;;;;5.73;2.20;;;;;;;7.77;100.00;98962.88;5005951;28;21204;-76
2023/11/04 05:52:45;;;;;;;8.50;3.13;;;;;;;8.31;100.00;99035.84;5006731;28;20219;-73
2023/11/04 05:55:11;;;;;;;5.23;2.30;;;;;;;7.69;100.00;98956.00;5004594;28;20189;-74
2023/11/04 05:57:38;;;;;;;7.13;2.70;;;;;;;7.64;100.00;98920.34;5005363;28;20199;-73
2023/11/04 06:00:11;;;;;;;7.33;2.13;;;;;;;7.67;100.00;98951.94;5013359;28;21046;-76
2023/11/04 06:02:40;;;;;;;7.10;2.57;;;;;;;7.91;100.00;98991.00;5018956;28;20542;-76
2023/11/04 06:05:09;;;;;;;7.63;1.97;;;;;;;7.63;100.00;98934.72;5006688;28;21086;-76
2023/11/04 06:07:36;;;;;;;6.53;2.30;;;;;;;8.25;100.00;99014.56;5004770;28;20528;-76
2023/11/04 06:10:08;;;;;;;3.80;2.03;;;;;;;8.34;100.00;99027.38;5002301;28;20976;-76
2023/11/04 06:12:34;;;;;;;7.33;2.50;;;;;;;7.95;100.00;98986.00;5004336;28;20532;-76
2023/11/04 06:15:00;;;;;;;6.03;2.17;;;;;;;8.31;100.00;99017.16;5000406;28;20460;-76
2023/11/04 06:17:25;;;;;;;6.67;2.10;;;;;;;8.28;100.00;99024.81;5000832;28;21087;-76
2023/11/04 06:19:51;;;;;;;5.93;2.13;;;;;;;7.74;100.00;98901.94;5009879;28;20212;-76
2023/11/04 06:22:16;;;;;;;4.90;2.50;;;;;;;8.32;100.00;99010.75;5002912;28;20650;-76
2023/11/04 06:24:41;;;;;;;4.83;2.20;;;;;;;8.10;100.00;98948.22;5004064;28;20560;-76
2023/11/04 06:27:07;;;;;;;3.87;2.00;;;;;;;8.21;100.00;99003.50;5004128;28;20827;-76
2023/11/04 06:29:32;;;;;;;4.50;1.60;;;;;;;8.29;100.00;99005.88;5001833;28;20662;-76
2023/11/04 06:31:58;;;;;;;8.07;2.30;;;;;;;8.19;100.00;98967.38;5006328;28;20271;-76
2023/11/04 06:34:23;;;;;;;7.63;1.83;;;;;;;8.42;100.00;99001.38;5006212;28;20677;-76
2023/11/04 06:36:51;;;;;;;5.30;2.00;;;;;;;8.19;100.00;98996.78;5003285;28;20659;-73
2023/11/04 06:39:17;;;;;;;5.43;2.80;;;;;;;7.92;100.00;98933.09;4997098;28;20197;-73
2023/11/04 06:41:43;;;;;;;6.23;2.20;;;;;;;8.19;100.00;98978.06;5007434;28;20439;-74
2023/11/04 06:44:09;;;;;;;13.03;2.17;;;;;;;7.90;100.00;98944.00;5005091;28;20463;-73
2023/11/04 06:46:34;;;;;;;5.93;2.47;;;;;;;8.33;100.00;98992.84;5001664;28;20518;-73
2023/11/04 06:49:00;;;;;;;4.70;1.50;;;;;;;7.77;100.00;98943.38;5004521;28;20536;-74
2023/11/04 06:51:26;;;;;;;5.10;2.20;;;;;;;8.34;100.00;99027.38;5003824;28;20316;-73
2023/11/04 06:53:53;;;;;;;4.87;2.10;;;;;;;7.70;100.00;98922.94;4999912;28;20655;-73
2023/11/04 06:56:20;;;;;;;4.17;2.20;;;;;;;7.68;100.00;98932.19;5003632;28;20494;-73
2023/11/04 06:58:45;;;;;;;5.00;1.90;;;;;;;7.83;100.00;98939.78;4997001;28;20462;-73
2023/11/04 07:01:15;;;;;;;5.63;2.30;;;;;;;7.79;100.00;98942.09;5001398;28;20463;-74
2023/11/04 07:03:41;;;;;;;4.70;2.10;;;;;;;7.61;100.00;98920.81;5002250;28;20237;-74
2023/11/04 07:06:17;;;;;;;4.73;1.93;;;;;;;8.33;100.00;99019.56;4999167;28;20472;-73
2023/11/04 07:08:42;;;;;;;7.10;2.10;;;;;;;8.35;100.00;99026.31;4998640;28;20508;-73
2023/11/04 07:11:09;;;;;;;3.53;1.70;;;;;;;7.73;100.00;98945.69;5002688;28;20432;-73
2023/11/04 07:13:35;;;;;;;7.47;1.80;;;;;;;8.36;100.00;99024.44;4999467;28;20217;-73
2023/11/04 07:16:00;;;;;;;5.77;2.17;;;;;;;8.40;100.00;99032.88;5002518;28;20941;-74
2023/11/04 07:18:26;;;;;;;4.70;2.30;;;;;;;7.84;100.00;98954.75;5001376;28;20182;-74
2023/11/04 07:20:51;;;;;;;5.70;2.00;;;;;;;8.19;100.00;98968.22;5001652;28;20267;-73
2023/11/04 07:23:17;;;;;;;9.73;2.27;;;;;;;7.89;100.00;98949.56;5003511;28;20208;-73
2023/11/04 07:25:44;;;;;;;6.80;2.40;;;;;;;8.39;100.00;99010.69;5000923;28;20247;-73
2023/11/04 07:28:10;;;;;;;4.83;2.27;;;;;;;8.10;100.00;98964.22;5007086;28;20185;-74
2023/11/04 07:30:37;;;;;;;6.60;2.10;;;;;;;7.83;100.00;98934.44;5005994;28;20428;-73
2023/11/04 07:33:03;;;;;;;6.70;2.40;;;;;;;8.40;100.00;99019.53;5003984;28;21115;-74
2023/11/04 07:35:28;;;;;;;6.77;2.80;;;;;;;8.44;100.00;99004.66;5000850;28;20447;-73
2023/11/04 07:37:56;;;;;;;4.00;2.20;;;;;;;8.25;100.00;98972.66;5000330;28;20597;-73
2023/11/04 07:40:23;;;;;;;4.20;2.40;;;;;;;7.96;100.00;98928.94;4996684;28;20661;-73
2023/11/04 07:42:49;;;;;;;4.57;1.70;;;;;;;8.51;100.00;99011.53;5003427;28;20437;-73
2023/11/04 07:45:14;;;;;;;5.27;2.40;;;;;;;7.78;100.00;98900.44;5004445;28;20515;-74
2023/11/04 07:47:41;;;;;;;6.50;2.37;;;;;;;8.21;100.00;98976.81;5003640;28;20189;-74
2023/11/04 07:50:10;;;;;;;3.83;1.80;;;;;;;8.43;100.00;99009.19;5001823;28;20225;-73
2023/11/04 07:52:41;;;;;;;2.90;1.50;;;;;;;8.06;100.00;98933.69;5002722;28;20438;-73
2023/11/04 07:55:10;;;;;;;4.43;1.70;;;;;;;7.95;100.00;98948.66;5001692;28;20983;-73
2023/11/04 07:57:39;;;;;;;6.70;2.20;;;;;;;8.59;100.00;99018.38;5006384;28;20448;-73
2023/11/04 08:00:07;;;;;;;4.43;2.20;;;;;;;8.20;100.00;98937.00;5000704;28;20483;-74
2023/11/04 08:02:40;;;;;;;4.57;2.23;;;;;;;8.04;100.00;98936.63;5004043;28;20509;-73
2023/11/04 08:05:06;;;;;;;3.57;1.70;;;;;;;8.17;100.00;98970.31;5007222;28;20931;-73
2023/11/04 08:07:31;;;;;;;5.63;2.43;;;;;;;8.58;100.00;99022.91;5002389;28;20501;-73
2023/11/04 08:10:01;;;;;;;4.93;1.70;;;;;;;8.56;100.00;99017.00;5004172;28;20432;-73
2023/11/04 08:12:26;;;;;;;4.47;2.00;;;;;;;8.44;100.00;99000.13;5005881;28;20190;-73
2023/11/04 08:14:51;;;;;;;3.40;1.90;;;;;;;7.76;100.00;98913.19;5004206;28;20576;-74
2023/11/04 08:17:17;;;;;;;4.13;1.70;;;;;;;8.66;100.00;99020.97;5009234;28;20193;-73
2023/11/04 08:19:43;;;;;;;4.90;2.23;;;;;;;8.49;100.00;99013.59;5006807;28;20645;-73
2023/11/04 08:22:09;;;;;;;4.57;2.27;;;;;;;8.53;100.00;99014.78;4992408;28;20189;-76
2023/11/04 08:24:38;;;;;;;4.57;2.00;;;;;;;8.59;100.00;99002.34;5011889;28;20208;-73
2023/11/04 08:27:03;;;;;;;4.80;2.00;;;;;;;8.50;100.00;99001.06;5001306;28;21019;-74
2023/11/04 08:29:30;;;;;;;4.90;2.33;;;;;;;8.04;100.00;98933.94;4999384;28;20520;-74
2023/11/04 08:31:56;;;;;;;4.03;2.07;;;;;;;8.58;100.00;98993.50;5000519;28;20180;-74
2023/11/04 08:34:22;;;;;;;5.73;2.30;;;;;;;8.18;100.00;98920.38;5003522;28;20799;-74
2023/11/04 08:36:48;;;;;;;5.40;2.70;;;;;;;8.08;100.00;98939.63;5004148;28;20434;-74
2023/11/04 08:39:14;;;;;;;5.80;2.33;;;;;;;8.53;100.00;98998.75;5000527;28;20593;-75
2023/11/04 08:41:39;;;;;;;5.70;2.63;;;;;;;8.33;100.00;98974.16;5003490;28;20264;-75
2023/11/04 08:44:05;;;;;;;5.17;2.00;;;;;;;8.22;100.00;98942.94;4996418;28;20867;-75
2023/11/04 08:46:30;;;;;;;5.37;2.33;;;;;;;8.51;100.00;98976.78;5005079;28;20197;-74
2023/11/04 08:48:56;;;;;;;5.73;2.33;;;;;;;8.58;100.00;98988.16;5008262;28;20189;-75
2023/11/04 08:51:21;;;;;;;4.63;2.50;;;;;;;8.10;100.00;98918.84;5005588;28;20284;-75
2023/11/04 08:53:48;;;;;;;4.93;2.20;;;;;;;8.66;100.00;98983.53;5003509;28;20267;-75
2023/11/04 08:56:14;;;;;;;5.90;2.40;;;;;;;8.59;100.00;98962.25;5001783;28;20182;-74
2023/11/04 08:58:42;;;;;;;6.53;2.80;;;;;;;8.70;100.00;98982.84;5012507;28;20440;-74
2023/11/04 09:01:08;;;;;;;7.07;2.27;;;;;;;8.85;100.00;99008.28;5000354;28;20474;-74
2023/11/04 09:03:33;;;;;;;5.93;2.40;;;;;;;8.43;100.00;98933.56;5000147;28;20460;-74
2023/11/04 09:05:59;;;;;;;4.67;2.00;;;;;;;8.85;100.00;99014.44;5002761;28;20181;-74
2023/11/04 09:08:24;;;;;;;8.03;2.70;;;;;;;8.63;100.00;98963.44;5001109;28;20189;-74
2023/11/04 09:10:50;;;;;;;3.80;2.30;;;;;;;8.97;100.00;98996.56;4998943;28;20181;-75
2023/11/04 09:13:15;;;;;;;5.97;2.30;;;;;;;8.95;100.00;98968.44;4999529;28;20245;-74
2023/11/04 09:15:40;;;;;;;4.83;2.17;;;;;;;8.75;100.00;98961.56;4998678;28;20201;-75
2023/11/04 09:18:06;;;;;;;6.03;2.50;;;;;;;8.83;100.00;98968.44;5002092;28;20192;-74
2023/11/04 09:20:32;;;;;;;7.23;2.70;;;;;;;8.36;100.00;98905.06;5002389;28;20216;-73
2023/11/04 09:22:58;;;;;;;7.90;2.53;;;;;;;8.30;100.00;98900.66;5001315;28;20435;-74
2023/11/04 09:25:24;;;;;;;8.70;2.90;;;;;;;8.53;100.00;98883.03;5004839;28;20189;-73
2023/11/04 09:27:49;;;;;;;8.00;2.67;;;;;;;8.92;100.00;98968.91;5005695;28;20443;-73
2023/11/04 09:30:16;;;;;;;5.73;2.20;;;;;;;8.95;100.00;98937.16;5006388;28;20190;-73
2023/11/04 09:32:42;;;;;;;5.40;2.23;;;;;;;8.57;100.00;98871.66;5002010;28;20205;-73
2023/11/04 09:35:12;;;;;;;6.47;2.40;;;;;;;8.60;100.00;98867.69;5000734;28;20431;-74
2023/11/04 09:37:40;;;;;;;5.30;2.50;;;;;;;9.15;100.00;98935.97;5002670;28;20443;-73
2023/11/04 09:40:07;;;;;;;5.50;2.17;;;;;;;8.85;100.00;98899.50;5000316;28;20474;-73
2023/11/04 09:42:34;;;;;;;7.20;2.30;;;;;;;8.64;100.00;98868.84;5005811;28;20436;-73
2023/11/04 09:45:02;;;;;;;4.27;1.63;;;;;;;8.68;100.00;98859.31;5000691;28;20875;-73
2023/11/04 09:47:28;;;;;;;4.83;2.40;;;;;;;9.21;100.00;98938.50;5001674;28;20479;-73
2023/11/04 09:49:57;;;;;;;5.10;2.63;;;;;;;9.03;100.00;98888.66;5005744;28;20963;-73
2023/11/04 09:52:24;;;;;;;5.10;1.97;;;;;;;9.30;100.00;98922.91;5005986;28;20444;-74
2023/11/04 09:54:50;;;;;;;8.60;2.40;;;;;;;9.43;100.00;98919.13;5004118;28;20470;-74
2023/11/04 09:57:16;;;;;;;8.60;2.40;;;;;;;9.43;100.00;98884.34;5004101;28;20440;-74
2023/11/04 09:59:42;;;;;;;3.90;1.83;;;;;;;9.54;100.00;98862.06;5003135;28;20263;-73
2023/11/04 10:02:11;;;;;;;6.63;1.83;;;;;;;9.14;100.00;98766.66;5004098;28;20428;-74
2023/11/04 10:04:40;;;;;;;5.70;1.70;;;;;;;9.22;100.00;98757.41;5000079;28;20201;-74
2023/11/04 10:07:07;;;;;;;7.23;1.67;;;;;;;9.00;100.00;98720.66;4999434;28;20810;-74
2023/11/04 10:09:35;;;;;;;6.37;1.67;;;;;;;9.42;100.00;98767.66;5003337;28;20443;-73
2023/11/04 10:12:03;;;;;;;5.00;1.50;;;;;;;9.55;100.00;98770.03;5006492;28;20439;-74
2023/11/04 10:14:28;;;;;;;5.50;1.83;;;;;;;9.62;100.00;98737.75;5007037;28;20459;-74
2023/11/04 10:16:54;;;;;;;4.60;1.83;;;;;;;9.04;100.00;98667.50;5008034;28;20424;-74
2023/11/04 10:19:19;;;;;;;8.17;1.70;;;;;;;9.40;100.00;98684.97;5006128;28;20797;-74
2023/11/04 10:21:45;;;;;;;7.93;2.13;;;;;;;8.87;100.00;98631.94;5003807;28;20220;-74
2023/11/04 10:24:11;;;;;;;5.80;2.10;;;;;;;9.22;100.00;98669.13;5003834;28;20216;-74
2023/11/04 10:26:37;;;;;;;6.40;1.87;;;;;;;9.00;100.00;98621.72;5003724;28;20909;-74
2023/11/04 10:29:06;;;;;;;5.57;2.40;;;;;;;9.47;100.00;98682.94;5005201;28;20433;-74
2023/11/04 10:31:32;;;;;;;6.63;1.90;;;;;;;8.99;100.00;98587.19;5003352;28;20528;-74
2023/11/04 10:34:03;;;;;;;4.20;1.40;;;;;;;9.12;100.00;98580.72;5001215;28;20458;-74
2023/11/04 10:36:31;;;;;;;4.63;1.83;;;;;;;9.69;100.00;98655.41;5005000;28;20436;-74
2023/11/04 10:39:03;;;;;;;5.50;1.70;;;;;;;9.10;100.00;98554.22;4999755;28;20603;-74
2023/11/04 10:41:53;;;;;;;6.43;1.83;;;;;;;9.65;100.00;98624.84;5015316;28;20468;-73
2023/11/04 10:44:28;;;;;;;6.83;2.33;;;;;;;9.62;100.00;98620.78;5004695;28;20876;-74
2023/11/04 10:47:31;;;;;;;15.50;1.90;;;;;;;9.71;100.00;98600.56;4999717;28;20939;-74
2023/11/04 10:50:31;;;;;;;5.00;1.87;;;;;;;9.64;100.00;98596.47;5001861;28;20439;-74
2023/11/04 10:53:29;;;;;;;5.63;1.63;;;;;;;9.43;100.00;98568.59;4984955;28;20471;-74
2023/11/04 10:56:13;;;;;;;4.53;1.67;;;;;;;9.18;100.00;98505.66;5006573;28;20661;-74
2023/11/04 10:58:48;;;;;;;8.57;1.70;;;;;;;9.49;100.00;98524.81;5004367;28;20428;-74
2023/11/04 11:01:14;;;;;;;4.93;1.50;;;;;;;9.17;100.00;98447.06;5003118;28;20467;-73
2023/11/04 11:03:41;;;;;;;5.00;1.60;;;;;;;10.03;100.00;98497.31;5004815;28;20448;-73
2023/11/04 11:06:10;;;;;;;3.90;1.13;;;;;;;9.91;100.00;98412.56;5006052;28;20192;-74
2023/11/04 11:08:38;;;;;;;6.63;1.63;;;;;;;10.05;100.00;98398.78;5005061;28;20534;-74
2023/11/04 11:11:17;;;;;;;5.53;1.40;;;;;;;10.15;100.00;98463.13;5003457;28;20783;-73
2023/11/04 11:13:48;;;;;;;6.83;1.60;;;;;;;10.07;100.00;98381.38;5025938;28;20497;-74
2023/11/04 11:16:14;;;;;;;5.00;1.43;;;;;;;10.81;100.00;98407.38;5003794;28;20439;-74
2023/11/04 11:18:39;;;;;;;6.83;1.53;;;;;;;10.33;100.00;98317.31;5002442;28;20432;-74
2023/11/04 11:21:09;;;;;;;7.73;1.80;;;;;;;11.22;100.00;98375.38;5003466;28;20469;-74
2023/11/04 11:23:35;;;;;;;9.17;1.93;;;;;;;10.36;100.00;98266.69;5001700;28;20259;-74
2023/11/04 11:26:03;;;;;;;3.30;1.10;;;;;;;10.65;100.00;98346.72;4998697;28;20428;-75
2023/11/04 11:28:38;;;;;;;3.70;1.07;;;;;;;10.53;100.00;98346.09;5003688;28;20189;-75
2023/11/04 11:31:11;;;;;;;4.13;1.10;;;;;;;10.39;100.00;98327.00;5004661;28;20493;-74